sensor_id;sensor_type;location;lat;lon;timestamp;P1;durP1;ratioP1;P2;durP2;ratioP2
26838;SDS011;40088;51.214;6.786;2022-10-24T00:04:48;4.45;;;2.38;;
26838;SDS011;40088;51.214;6.786;2022-10-24T00:14:48;5.43;;;2.40;;
26838;SDS011;40088;51.214;6.786;2022-10-24T00:24:49;9.25;;;2.40;;
26838;SDS011;40088;51.214;6.786;2022-10-24T00:34:49;5.35;;;2.65;;
26838;SDS011;40088;51.214;6.786;2022-10-24T00:44:51;3.28;;;2.20;;
26838;SDS011;40088;51.214;6.786;2022-10-24T00:54:52;9.03;;;2.67;;
26838;SDS011;40088;51.214;6.786;2022-10-24T01:04:54;9.60;;;2.63;;
26838;SDS011;40088;51.214;6.786;2022-10-24T01:25:33;6.32;;;2.83;;
26838;SDS011;40088;51.214;6.786;2022-10-24T01:35:48;6.85;;;2.75;;
26838;SDS011;40088;51.214;6.786;2022-10-24T01:45:58;5.05;;;2.38;;
26838;SDS011;40088;51.214;6.786;2022-10-24T01:56:01;6.60;;;2.55;;
26838;SDS011;40088;51.214;6.786;2022-10-24T02:06:10;6.93;;;2.72;;
26838;SDS011;40088;51.214;6.786;2022-10-24T02:16:16;3.65;;;2.65;;
26838;SDS011;40088;51.214;6.786;2022-10-24T02:26:21;4.25;;;2.67;;
26838;SDS011;40088;51.214;6.786;2022-10-24T02:36:34;5.32;;;2.47;;
26838;SDS011;40088;51.214;6.786;2022-10-24T02:46:37;3.83;;;2.25;;
26838;SDS011;40088;51.214;6.786;2022-10-24T02:56:40;6.50;;;2.80;;
26838;SDS011;40088;51.214;6.786;2022-10-24T03:06:45;6.50;;;2.60;;
26838;SDS011;40088;51.214;6.786;2022-10-24T03:16:45;8.52;;;2.70;;
26838;SDS011;40088;51.214;6.786;2022-10-24T03:26:45;5.50;;;2.70;;
26838;SDS011;40088;51.214;6.786;2022-10-24T03:36:45;3.53;;;2.35;;
26838;SDS011;40088;51.214;6.786;2022-10-24T03:46:46;5.25;;;2.55;;
26838;SDS011;40088;51.214;6.786;2022-10-24T03:56:46;3.45;;;2.10;;
26838;SDS011;40088;51.214;6.786;2022-10-24T04:06:49;5.38;;;2.03;;
26838;SDS011;40088;51.214;6.786;2022-10-24T04:16:49;4.30;;;2.53;;
26838;SDS011;40088;51.214;6.786;2022-10-24T04:26:50;4.03;;;2.45;;
26838;SDS011;40088;51.214;6.786;2022-10-24T04:36:50;6.00;;;2.25;;
26838;SDS011;40088;51.214;6.786;2022-10-24T04:46:50;6.93;;;2.50;;
26838;SDS011;40088;51.214;6.786;2022-10-24T04:56:50;8.93;;;3.08;;
26838;SDS011;40088;51.214;6.786;2022-10-24T05:06:51;5.40;;;2.38;;
26838;SDS011;40088;51.214;6.786;2022-10-24T05:16:52;4.53;;;2.20;;
26838;SDS011;40088;51.214;6.786;2022-10-24T05:26:52;4.22;;;2.40;;
26838;SDS011;40088;51.214;6.786;2022-10-24T05:36:52;8.18;;;2.95;;
26838;SDS011;40088;51.214;6.786;2022-10-24T05:46:53;5.27;;;2.47;;
26838;SDS011;40088;51.214;6.786;2022-10-24T05:56:53;4.82;;;2.75;;
26838;SDS011;40088;51.214;6.786;2022-10-24T06:06:54;3.97;;;1.90;;
26838;SDS011;40088;51.214;6.786;2022-10-24T06:16:54;4.38;;;2.30;;
26838;SDS011;40088;51.214;6.786;2022-10-24T06:26:54;6.70;;;2.10;;
26838;SDS011;40088;51.214;6.786;2022-10-24T06:36:55;5.35;;;2.30;;
26838;SDS011;40088;51.214;6.786;2022-10-24T06:46:55;4.65;;;2.20;;
26838;SDS011;40088;51.214;6.786;2022-10-24T06:56:55;4.28;;;2.10;;
26838;SDS011;40088;51.214;6.786;2022-10-24T07:06:55;4.70;;;2.20;;
26838;SDS011;40088;51.214;6.786;2022-10-24T07:16:56;5.60;;;1.90;;
26838;SDS011;40088;51.214;6.786;2022-10-24T07:26:57;7.13;;;2.03;;
26838;SDS011;40088;51.214;6.786;2022-10-24T07:36:57;4.63;;;1.98;;
26838;SDS011;40088;51.214;6.786;2022-10-24T07:46:57;3.28;;;1.90;;
26838;SDS011;40088;51.214;6.786;2022-10-24T07:56:58;2.78;;;1.60;;
26838;SDS011;40088;51.214;6.786;2022-10-24T08:06:58;3.40;;;1.83;;
26838;SDS011;40088;51.214;6.786;2022-10-24T08:16:58;6.13;;;2.08;;
26838;SDS011;40088;51.214;6.786;2022-10-24T08:26:59;3.90;;;1.83;;
26838;SDS011;40088;51.214;6.786;2022-10-24T08:36:59;3.63;;;1.88;;
26838;SDS011;40088;51.214;6.786;2022-10-24T08:57:32;4.00;;;1.70;;
26838;SDS011;40088;51.214;6.786;2022-10-24T09:07:33;3.42;;;1.85;;
26838;SDS011;40088;51.214;6.786;2022-10-24T09:17:33;5.97;;;1.90;;
26838;SDS011;40088;51.214;6.786;2022-10-24T09:27:35;5.07;;;1.88;;
26838;SDS011;40088;51.214;6.786;2022-10-24T09:37:39;4.57;;;1.80;;
26838;SDS011;40088;51.214;6.786;2022-10-24T09:57:41;6.13;;;1.73;;
26838;SDS011;40088;51.214;6.786;2022-10-24T10:07:42;7.63;;;2.08;;
26838;SDS011;40088;51.214;6.786;2022-10-24T10:17:48;5.15;;;1.88;;
26838;SDS011;40088;51.214;6.786;2022-10-24T10:27:52;4.88;;;2.08;;
26838;SDS011;40088;51.214;6.786;2022-10-24T10:38:10;4.57;;;2.20;;
26838;SDS011;40088;51.214;6.786;2022-10-24T10:58:39;4.25;;;1.80;;
26838;SDS011;40088;51.214;6.786;2022-10-24T11:18:55;4.95;;;1.73;;
26838;SDS011;40088;51.214;6.786;2022-10-24T11:29:03;6.50;;;1.92;;
26838;SDS011;40088;51.214;6.786;2022-10-24T11:39:28;5.10;;;1.80;;
26838;SDS011;40088;51.214;6.786;2022-10-24T11:49:33;5.07;;;2.13;;
26838;SDS011;40088;51.214;6.786;2022-10-24T11:59:37;4.65;;;1.73;;
26838;SDS011;40088;51.214;6.786;2022-10-24T12:20:00;5.28;;;1.90;;
26838;SDS011;40088;51.214;6.786;2022-10-24T12:30:13;5.43;;;1.90;;
26838;SDS011;40088;51.214;6.786;2022-10-24T13:00:51;6.40;;;2.20;;
26838;SDS011;40088;51.214;6.786;2022-10-24T13:21:28;5.55;;;2.13;;
26838;SDS011;40088;51.214;6.786;2022-10-24T13:51:43;3.80;;;1.60;;
26838;SDS011;40088;51.214;6.786;2022-10-24T14:01:48;5.10;;;2.05;;
26838;SDS011;40088;51.214;6.786;2022-10-24T14:11:48;4.50;;;1.95;;
26838;SDS011;40088;51.214;6.786;2022-10-24T14:21:49;4.57;;;2.00;;
26838;SDS011;40088;51.214;6.786;2022-10-24T14:31:54;4.70;;;1.98;;
26838;SDS011;40088;51.214;6.786;2022-10-24T14:41:56;6.97;;;2.08;;
26838;SDS011;40088;51.214;6.786;2022-10-24T14:52:00;4.65;;;2.00;;
26838;SDS011;40088;51.214;6.786;2022-10-24T15:02:19;5.63;;;1.90;;
26838;SDS011;40088;51.214;6.786;2022-10-24T15:12:45;5.20;;;1.92;;
26838;SDS011;40088;51.214;6.786;2022-10-24T15:22:53;5.15;;;2.28;;
26838;SDS011;40088;51.214;6.786;2022-10-24T15:32:56;3.95;;;2.00;;
26838;SDS011;40088;51.214;6.786;2022-10-24T15:42:58;6.10;;;1.93;;
26838;SDS011;40088;51.214;6.786;2022-10-24T15:52:59;5.70;;;2.15;;
26838;SDS011;40088;51.214;6.786;2022-10-24T16:03:01;4.47;;;1.80;;
26838;SDS011;40088;51.214;6.786;2022-10-24T16:13:03;6.72;;;2.17;;
26838;SDS011;40088;51.214;6.786;2022-10-24T16:23:04;7.25;;;2.05;;
26838;SDS011;40088;51.214;6.786;2022-10-24T16:33:04;5.22;;;2.08;;
26838;SDS011;40088;51.214;6.786;2022-10-24T16:43:05;3.17;;;1.70;;
26838;SDS011;40088;51.214;6.786;2022-10-24T16:53:06;3.22;;;2.08;;
26838;SDS011;40088;51.214;6.786;2022-10-24T17:03:07;4.93;;;1.90;;
26838;SDS011;40088;51.214;6.786;2022-10-24T17:13:08;6.40;;;2.17;;
26838;SDS011;40088;51.214;6.786;2022-10-24T17:23:10;7.00;;;2.38;;
26838;SDS011;40088;51.214;6.786;2022-10-24T17:33:12;6.05;;;2.30;;
26838;SDS011;40088;51.214;6.786;2022-10-24T17:43:20;6.20;;;2.30;;
26838;SDS011;40088;51.214;6.786;2022-10-24T17:53:25;5.75;;;2.80;;
26838;SDS011;40088;51.214;6.786;2022-10-24T18:03:25;5.35;;;2.35;;
26838;SDS011;40088;51.214;6.786;2022-10-24T18:13:27;5.18;;;2.50;;
26838;SDS011;40088;51.214;6.786;2022-10-24T18:23:28;6.65;;;2.75;;
26838;SDS011;40088;51.214;6.786;2022-10-24T18:33:30;5.20;;;2.20;;
26838;SDS011;40088;51.214;6.786;2022-10-24T18:43:31;6.03;;;2.57;;
26838;SDS011;40088;51.214;6.786;2022-10-24T18:53:31;5.00;;;2.33;;
26838;SDS011;40088;51.214;6.786;2022-10-24T19:03:39;3.47;;;1.88;;
26838;SDS011;40088;51.214;6.786;2022-10-24T19:13:43;4.72;;;2.20;;
26838;SDS011;40088;51.214;6.786;2022-10-24T19:23:44;6.43;;;1.90;;
26838;SDS011;40088;51.214;6.786;2022-10-24T19:33:44;5.50;;;2.30;;
26838;SDS011;40088;51.214;6.786;2022-10-24T19:43:45;3.65;;;1.80;;
26838;SDS011;40088;51.214;6.786;2022-10-24T19:53:45;4.65;;;2.00;;
26838;SDS011;40088;51.214;6.786;2022-10-24T20:03:47;5.55;;;2.75;;
26838;SDS011;40088;51.214;6.786;2022-10-24T20:13:48;6.03;;;3.40;;
26838;SDS011;40088;51.214;6.786;2022-10-24T20:23:49;6.95;;;3.30;;
26838;SDS011;40088;51.214;6.786;2022-10-24T20:33:50;7.78;;;3.83;;
26838;SDS011;40088;51.214;6.786;2022-10-24T20:43:51;8.40;;;3.92;;
26838;SDS011;40088;51.214;6.786;2022-10-24T20:53:52;8.02;;;3.55;;
26838;SDS011;40088;51.214;6.786;2022-10-24T21:03:53;10.20;;;3.88;;
26838;SDS011;40088;51.214;6.786;2022-10-24T21:13:55;8.07;;;3.80;;
26838;SDS011;40088;51.214;6.786;2022-10-24T21:24:01;6.35;;;3.50;;
26838;SDS011;40088;51.214;6.786;2022-10-24T21:34:02;5.27;;;2.70;;
26838;SDS011;40088;51.214;6.786;2022-10-24T21:44:02;5.40;;;2.83;;
26838;SDS011;40088;51.214;6.786;2022-10-24T21:54:04;5.38;;;2.70;;
26838;SDS011;40088;51.214;6.786;2022-10-24T22:04:06;4.85;;;2.85;;
26838;SDS011;40088;51.214;6.786;2022-10-24T22:14:09;5.90;;;2.80;;
26838;SDS011;40088;51.214;6.786;2022-10-24T22:24:13;5.13;;;2.22;;
26838;SDS011;40088;51.214;6.786;2022-10-24T22:34:19;5.88;;;2.72;;
26838;SDS011;40088;51.214;6.786;2022-10-24T22:44:21;4.97;;;2.45;;
26838;SDS011;40088;51.214;6.786;2022-10-24T22:54:23;4.50;;;2.20;;
26838;SDS011;40088;51.214;6.786;2022-10-24T23:04:34;5.05;;;2.40;;
26838;SDS011;40088;51.214;6.786;2022-10-24T23:14:41;3.65;;;1.90;;
26838;SDS011;40088;51.214;6.786;2022-10-24T23:24:42;6.63;;;2.15;;
26838;SDS011;40088;51.214;6.786;2022-10-24T23:34:43;3.40;;;1.97;;
26838;SDS011;40088;51.214;6.786;2022-10-24T23:44:43;7.10;;;2.43;;
26838;SDS011;40088;51.214;6.786;2022-10-24T23:54:44;5.43;;;2.17;;
